Time;durP1;ratioP1;P1;durP2;ratioP2;P2;SDS_P1;SDS_P2;PMS_P1;PMS_P2;Temp;Humidity;BMP_temperature;BMP_pressure;BME280_temperature;BME280_humidity;BME280_pressure;Samples;Min_cycle;Max_cycle;Signal;HPM_P1;HPM_P2
2022/04/05 00:01:37;;;;;;;;;;;8.90;99.90;;;;;;5016561;28;19936;-70
2022/04/05 00:04:04;;;;;;;;;;;8.90;99.90;;;;;;5011674;28;19926;-70
2022/04/05 00:06:31;;;;;;;;;;;9.00;99.90;;;;;;5020836;28;20020;-73
2022/04/05 00:08:59;;;;;;;;;;;9.00;99.90;;;;;;5007650;28;19937;-75
2022/04/05 00:11:26;;;;;;;;;;;9.00;99.90;;;;;;5011334;28;19925;-73
2022/04/05 00:13:53;;;;;;;;;;;9.00;99.90;;;;;;5006847;28;19965;-74
2022/04/05 00:16:20;;;;;;;;;;;9.00;99.90;;;;;;5000897;28;19972;-72
2022/04/05 00:18:46;;;;;;;;;;;8.50;99.90;;;;;;5013210;28;19926;-73
2022/04/05 00:21:13;;;;;;;;;;;9.10;99.90;;;;;;5007512;28;19929;-72
2022/04/05 00:23:39;;;;;;;;;;;9.10;99.90;;;;;;5006652;28;20402;-73
2022/04/05 00:26:08;;;;;;;;;;;9.10;99.90;;;;;;5015841;28;19929;-70
2022/04/05 00:28:34;;;;;;;;;;;9.10;99.90;;;;;;5009021;28;19926;-70
2022/04/05 00:31:01;;;;;;;;;;;9.20;99.90;;;;;;5007772;28;19968;-70
2022/04/05 00:33:28;;;;;;;;;;;9.20;99.90;;;;;;5008641;28;20405;-70
2022/04/05 00:35:55;;;;;;;;;;;9.20;99.90;;;;;;5010623;28;19930;-71
2022/04/05 00:38:21;;;;;;;;;;;9.20;99.90;;;;;;5008757;28;20494;-70
2022/04/05 00:40:48;;;;;;;;;;;9.20;99.90;;;;;;5013134;28;20362;-73
2022/04/05 00:43:16;;;;;;;;;;;9.20;99.90;;;;;;5006659;28;19925;-73
2022/04/05 00:45:43;;;;;;;;;;;9.20;99.90;;;;;;5009985;28;19976;-74
2022/04/05 00:48:09;;;;;;;;;;;9.20;99.90;;;;;;5007307;28;19968;-73
2022/04/05 00:50:37;;;;;;;;;;;9.20;99.90;;;;;;5005690;28;19929;-73
2022/04/05 00:53:07;;;;;;;;;;;9.20;99.90;;;;;;5003395;28;20379;-73
2022/04/05 00:55:34;;;;;;;;;;;9.20;99.90;;;;;;5007690;28;19956;-72
2022/04/05 00:58:02;;;;;;;;;;;9.20;99.90;;;;;;5006811;28;19952;-72
2022/04/05 01:00:30;;;;;;;;;;;9.20;99.90;;;;;;5011133;28;19972;-72
2022/04/05 01:02:57;;;;;;;;;;;9.20;99.90;;;;;;5005591;28;19952;-73
2022/04/05 01:05:25;;;;;;;;;;;9.20;99.90;;;;;;5006697;28;19937;-73
2022/04/05 01:07:52;;;;;;;;;;;9.30;99.90;;;;;;5019367;28;19996;-73
2022/04/05 01:10:20;;;;;;;;;;;9.30;99.90;;;;;;5007830;28;20415;-73
2022/04/05 01:12:49;;;;;;;;;;;9.30;99.90;;;;;;5007185;28;19930;-73
2022/04/05 01:15:15;;;;;;;;;;;9.30;99.90;;;;;;5007808;28;20044;-73
2022/04/05 01:17:43;;;;;;;;;;;9.30;99.90;;;;;;5007712;28;20314;-73
2022/04/05 01:20:11;;;;;;;;;;;9.30;99.90;;;;;;5007727;28;19929;-73
2022/04/05 01:22:45;;;;;;;;;;;9.30;99.90;;;;;;5022349;28;19937;-73
2022/04/05 01:25:14;;;;;;;;;;;9.40;99.90;;;;;;5006657;28;19987;-73
2022/04/05 01:27:41;;;;;;;;;;;9.40;99.90;;;;;;5010389;28;19934;-73
2022/04/05 01:30:08;;;;;;;;;;;9.40;99.90;;;;;;5006568;28;19979;-70
2022/04/05 01:32:35;;;;;;;;;;;9.40;99.90;;;;;;5007989;28;20290;-70
2022/04/05 01:35:02;;;;;;;;;;;9.40;99.90;;;;;;5011090;28;20356;-70
2022/04/05 01:37:28;;;;;;;;;;;9.40;99.90;;;;;;5013304;28;19933;-70
2022/04/05 01:39:55;;;;;;;;;;;9.40;99.90;;;;;;5011340;28;19926;-71
2022/04/05 01:42:23;;;;;;;;;;;9.40;99.90;;;;;;5003179;28;19929;-70
2022/04/05 01:44:50;;;;;;;;;;;9.50;99.90;;;;;;5006378;28;19930;-70
2022/04/05 01:47:18;;;;;;;;;;;9.50;99.90;;;;;;5007702;28;19925;-70
2022/04/05 01:49:46;;;;;;;;;;;9.50;99.90;;;;;;5007523;28;19929;-71
2022/04/05 01:52:13;;;;;;;;;;;9.50;99.90;;;;;;5006234;28;20477;-70
2022/04/05 01:54:40;;;;;;;;;;;9.50;99.90;;;;;;5007249;28;19930;-70
2022/04/05 01:57:07;;;;;;;;;;;9.60;99.90;;;;;;5006895;28;20016;-70
2022/04/05 01:59:35;;;;;;;;;;;9.60;99.90;;;;;;5006683;28;19926;-70
2022/04/05 02:02:04;;;;;;;;;;;9.60;99.90;;;;;;5006458;28;19925;-71
2022/04/05 02:04:31;;;;;;;;;;;9.60;99.90;;;;;;5010091;28;19937;-73
2022/04/05 02:06:58;;;;;;;;;;;9.60;99.90;;;;;;5009441;28;19925;-73
2022/04/05 02:09:25;;;;;;;;;;;9.70;99.90;;;;;;5008547;28;19983;-73
2022/04/05 02:11:53;;;;;;;;;;;9.70;99.90;;;;;;5018563;28;19925;-74
2022/04/05 02:14:41;;;;;;;;;;;9.70;99.90;;;;;;5016435;28;19936;-73
2022/04/05 02:17:12;;;;;;;;;;;9.70;99.90;;;;;;5022823;28;20259;-72
2022/04/05 02:19:41;;;;;;;;;;;9.70;99.90;;;;;;5008317;28;20283;-73
2022/04/05 02:22:09;;;;;;;;;;;9.80;99.90;;;;;;5006245;28;19938;-72
2022/04/05 02:24:38;;;;;;;;;;;9.80;99.90;;;;;;5020969;28;20417;-73
2022/04/05 02:27:05;;;;;;;;;;;9.80;99.90;;;;;;5011210;28;20414;-74
2022/04/05 02:29:35;;;;;;;;;;;9.80;99.90;;;;;;5009502;28;19937;-73
2022/04/05 02:32:09;;;;;;;;;;;9.90;99.90;;;;;;5008869;28;19929;-73
2022/04/05 02:34:37;;;;;;;;;;;9.90;99.90;;;;;;5014188;28;20407;-73
2022/04/05 02:37:05;;;;;;;;;;;9.90;99.90;;;;;;5021255;28;20027;-73
2022/04/05 02:39:34;;;;;;;;;;;9.90;99.90;;;;;;5010876;28;20217;-72
2022/04/05 02:42:03;;;;;;;;;;;9.90;99.90;;;;;;5028237;28;19929;-72
2022/04/05 02:44:33;;;;;;;;;;;9.90;99.90;;;;;;5020318;28;20028;-72
2022/04/05 02:47:04;;;;;;;;;;;9.90;99.90;;;;;;5021936;28;19925;-73
2022/04/05 02:49:34;;;;;;;;;;;10.00;99.90;;;;;;5016099;28;19980;-73
2022/04/05 02:52:03;;;;;;;;;;;10.00;99.90;;;;;;5005052;28;19960;-73
2022/04/05 02:54:39;;;;;;;;;;;10.00;99.90;;;;;;4997095;28;19957;-73
2022/04/05 02:57:07;;;;;;;;;;;10.00;99.90;;;;;;5021275;28;20353;-73
2022/04/05 02:59:34;;;;;;;;;;;10.00;99.90;;;;;;5012755;28;20019;-70
2022/04/05 03:02:01;;;;;;;;;;;10.10;99.90;;;;;;5022490;28;19984;-70
2022/04/05 03:04:28;;;;;;;;;;;10.00;99.90;;;;;;5009027;28;20028;-70
2022/04/05 03:06:57;;;;;;;;;;;10.00;99.90;;;;;;5020009;28;19937;-70
2022/04/05 03:09:27;;;;;;;;;;;10.00;99.90;;;;;;4998953;28;20452;-70
2022/04/05 03:11:55;;;;;;;;;;;9.90;99.90;;;;;;5016663;28;19976;-73
2022/04/05 03:14:22;;;;;;;;;;;9.80;99.90;;;;;;5019857;28;19976;-72
2022/04/05 03:16:50;;;;;;;;;;;9.70;99.90;;;;;;5011016;28;19933;-73
2022/04/05 03:19:20;;;;;;;;;;;9.60;99.90;;;;;;5007297;28;19941;-74
2022/04/05 03:21:49;;;;;;;;;;;9.60;99.90;;;;;;5009265;28;19956;-73
2022/04/05 03:24:17;;;;;;;;;;;9.50;99.90;;;;;;5007608;28;20036;-74
2022/04/05 03:26:44;;;;;;;;;;;9.40;99.90;;;;;;5007983;28;19929;-74
2022/04/05 03:29:12;;;;;;;;;;;9.40;99.90;;;;;;5022103;28;19929;-74
2022/04/05 03:31:40;;;;;;;;;;;9.30;99.90;;;;;;5021383;28;20412;-75
2022/04/05 03:34:07;;;;;;;;;;;9.30;99.90;;;;;;5016496;28;19937;-73
2022/04/05 03:36:35;;;;;;;;;;;9.30;99.90;;;;;;5018678;28;20314;-74
2022/04/05 03:39:02;;;;;;;;;;;9.20;99.90;;;;;;5021277;28;20465;-74
2022/04/05 03:41:31;;;;;;;;;;;9.20;99.90;;;;;;5023549;28;20219;-73
2022/04/05 03:43:59;;;;;;;;;;;9.20;99.90;;;;;;5026226;28;19973;-75
2022/04/05 03:46:32;;;;;;;;;;;9.10;99.90;;;;;;5016664;28;19929;-73
2022/04/05 03:48:59;;;;;;;;;;;9.00;99.90;;;;;;5011194;28;19929;-71
2022/04/05 03:51:26;;;;;;;;;;;9.00;99.90;;;;;;5004305;28;19937;-71
2022/04/05 03:53:59;;;;;;;;;;;9.00;99.90;;;;;;5016269;28;19940;-71
2022/04/05 03:56:30;;;;;;;;;;;9.00;99.90;;;;;;5019694;28;19930;-71
2022/04/05 03:59:01;;;;;;;;;;;9.00;99.90;;;;;;5018836;28;19929;-71
2022/04/05 04:01:28;;;;;;;;;;;9.00;99.90;;;;;;5020803;28;19936;-71
2022/04/05 04:03:56;;;;;;;;;;;9.00;99.90;;;;;;5022663;28;19932;-71
2022/04/05 04:06:23;;;;;;;;;;;9.00;99.90;;;;;;5004471;28;19930;-71
2022/04/05 04:08:50;;;;;;;;;;;9.00;99.90;;;;;;5019686;28;20018;-71
2022/04/05 04:11:19;;;;;;;;;;;10.70;99.90;;;;;;5014008;28;19971;-71
2022/04/05 04:13:48;;;;;;;;;;;9.00;99.90;;;;;;5018405;28;19961;-71
2022/04/05 04:16:20;;;;;;;;;;;9.00;99.90;;;;;;5007160;28;20031;-71
2022/04/05 04:18:47;;;;;;;;;;;9.00;99.90;;;;;;5003470;28;19951;-71
2022/04/05 04:21:14;;;;;;;;;;;9.10;99.90;;;;;;4998227;28;19925;-71
2022/04/05 04:23:41;;;;;;;;;;;9.10;99.90;;;;;;5006278;28;19943;-71
2022/04/05 04:26:09;;;;;;;;;;;9.10;99.90;;;;;;5009615;28;20123;-71
2022/04/05 04:28:35;;;;;;;;;;;9.10;99.90;;;;;;5007836;28;19944;-71
2022/04/05 04:31:04;;;;;;;;;;;9.10;99.90;;;;;;5008324;28;19925;-71
2022/04/05 04:33:30;;;;;;;;;;;9.10;99.90;;;;;;5008726;28;20020;-71
2022/04/05 04:35:58;;;;;;;;;;;9.10;99.90;;;;;;5009065;28;19929;-70
2022/04/05 04:38:24;;;;;;;;;;;9.20;99.90;;;;;;5022426;28;20292;-71
2022/04/05 04:40:51;;;;;;;;;;;9.10;99.90;;;;;;5008954;28;19945;-71
2022/04/05 04:43:19;;;;;;;;;;;9.20;99.90;;;;;;5015965;28;19929;-69
2022/04/05 04:45:46;;;;;;;;;;;9.20;99.90;;;;;;5008132;28;19937;-71
2022/04/05 04:48:14;;;;;;;;;;;9.20;99.90;;;;;;5008115;28;19925;-71
2022/04/05 04:50:41;;;;;;;;;;;9.20;99.90;;;;;;5010480;28;20468;-71
2022/04/05 04:53:08;;;;;;;;;;;9.20;99.90;;;;;;5009207;28;20411;-74
2022/04/05 04:55:34;;;;;;;;;;;9.20;99.90;;;;;;5009313;28;19930;-73
2022/04/05 04:58:01;;;;;;;;;;;9.20;99.90;;;;;;5008236;28;20310;-73
2022/04/05 05:00:28;;;;;;;;;;;9.20;99.90;;;;;;5001544;28;20384;-74
2022/04/05 05:02:54;;;;;;;;;;;9.20;99.90;;;;;;5009602;28;19936;-74
2022/04/05 05:05:23;;;;;;;;;;;9.20;99.90;;;;;;5014149;28;20424;-73
2022/04/05 05:07:50;;;;;;;;;;;9.20;99.90;;;;;;5019509;28;19925;-72
2022/04/05 05:10:17;;;;;;;;;;;9.20;99.90;;;;;;5016130;28;19952;-73
2022/04/05 05:12:44;;;;;;;;;;;9.20;99.90;;;;;;5018901;28;19933;-73
2022/04/05 05:15:13;;;;;;;;;;;9.20;99.90;;;;;;5027287;28;19937;-74
2022/04/05 05:17:40;;;;;;;;;;;9.20;99.90;;;;;;5019569;28;20374;-74
2022/04/05 05:20:09;;;;;;;;;;;9.20;99.90;;;;;;5020901;28;20366;-71
2022/04/05 05:22:37;;;;;;;;;;;9.20;99.90;;;;;;5027999;28;20359;-73
2022/04/05 05:25:04;;;;;;;;;;;9.20;99.90;;;;;;5016603;28;20295;-73
2022/04/05 05:27:31;;;;;;;;;;;9.30;99.90;;;;;;5019578;28;19933;-74
2022/04/05 05:29:58;;;;;;;;;;;9.30;99.90;;;;;;5015832;28;20298;-73
2022/04/05 05:32:24;;;;;;;;;;;11.40;99.90;;;;;;5019252;28;19929;-72
2022/04/05 05:34:51;;;;;;;;;;;9.30;99.90;;;;;;5022999;28;19926;-73
2022/04/05 05:37:18;;;;;;;;;;;9.30;99.90;;;;;;5019348;28;19934;-70
2022/04/05 05:39:46;;;;;;;;;;;9.30;99.90;;;;;;5025539;28;20390;-70
2022/04/05 05:42:13;;;;;;;;;;;9.30;99.90;;;;;;5020135;28;19979;-70
2022/04/05 05:44:40;;;;;;;;;;;9.40;99.90;;;;;;5020206;28;19972;-70
2022/04/05 05:47:08;;;;;;;;;;;9.60;99.90;;;;;;5015303;28;19957;-73
2022/04/05 05:49:35;;;;;;;;;;;9.50;99.90;;;;;;5020160;28;19933;-73
2022/04/05 05:52:02;;;;;;;;;;;9.60;99.90;;;;;;5018022;28;20374;-73
2022/04/05 05:54:28;;;;;;;;;;;9.70;99.90;;;;;;5019876;28;19929;-74
2022/04/05 05:56:56;;;;;;;;;;;9.80;99.90;;;;;;5022314;28;19933;-73
2022/04/05 05:59:26;;;;;;;;;;;9.90;99.90;;;;;;5009773;28;19944;-71
2022/04/05 06:01:54;;;;;;;;;;;9.90;99.90;;;;;;5005156;28;19976;-73
2022/04/05 06:04:21;;;;;;;;;;;9.90;99.90;;;;;;5009808;28;20470;-73
2022/04/05 06:06:48;;;;;;;;;;;10.00;99.90;;;;;;5012467;28;19925;-73
2022/04/05 06:09:15;;;;;;;;;;;11.00;99.90;;;;;;5011834;28;19975;-73
2022/04/05 06:11:43;;;;;;;;;;;10.10;99.90;;;;;;5007769;28;19926;-73
2022/04/05 06:14:12;;;;;;;;;;;10.20;99.90;;;;;;5002464;28;20446;-73
2022/04/05 06:16:38;;;;;;;;;;;10.20;99.90;;;;;;5023935;28;20304;-72
2022/04/05 06:19:05;;;;;;;;;;;10.20;99.90;;;;;;5014099;28;20454;-72
2022/04/05 06:21:32;;;;;;;;;;;10.30;99.90;;;;;;5013039;28;20345;-71
2022/04/05 06:23:58;;;;;;;;;;;10.30;99.90;;;;;;5019969;28;19933;-72
2022/04/05 06:26:25;;;;;;;;;;;10.40;99.90;;;;;;5010460;28;19937;-72
2022/04/05 06:28:54;;;;;;;;;;;10.40;99.90;;;;;;5011829;28;20311;-72
2022/04/05 06:31:22;;;;;;;;;;;10.70;99.90;;;;;;5009657;28;20409;-71
2022/04/05 06:33:48;;;;;;;;;;;10.50;99.90;;;;;;5012200;28;19933;-71
2022/04/05 06:36:15;;;;;;;;;;;10.80;99.90;;;;;;5011304;28;19933;-71
2022/04/05 06:38:42;;;;;;;;;;;10.50;99.90;;;;;;5010248;28;20429;-70
2022/04/05 06:41:08;;;;;;;;;;;10.60;99.90;;;;;;5003841;28;20024;-70
2022/04/05 06:43:35;;;;;;;;;;;10.60;99.90;;;;;;5010369;28;19979;-71
2022/04/05 06:46:03;;;;;;;;;;;10.60;99.90;;;;;;5010343;28;19936;-70
2022/04/05 06:48:31;;;;;;;;;;;10.70;99.90;;;;;;5010088;28;19929;-68
2022/04/05 06:50:58;;;;;;;;;;;10.70;99.90;;;;;;5009940;28;19952;-70
2022/04/05 06:53:24;;;;;;;;;;;10.60;99.90;;;;;;5009501;28;19940;-69
2022/04/05 06:55:51;;;;;;;;;;;10.70;99.90;;;;;;5011976;28;19976;-70
2022/04/05 06:58:18;;;;;;;;;;;10.60;99.90;;;;;;5010632;28;20532;-72
2022/04/05 07:00:45;;;;;;;;;;;10.60;99.90;;;;;;4996340;28;19929;-72
2022/04/05 07:03:11;;;;;;;;;;;10.60;99.90;;;;;;5008709;28;19976;-71
2022/04/05 07:05:39;;;;;;;;;;;10.60;99.90;;;;;;5013133;28;19929;-70
2022/04/05 07:08:06;;;;;;;;;;;10.70;99.90;;;;;;5009439;28;19929;-70
2022/04/05 07:10:33;;;;;;;;;;;10.70;99.90;;;;;;5018986;28;19951;-70
2022/04/05 07:13:00;;;;;;;;;;;10.70;99.90;;;;;;5003267;28;19925;-70
2022/04/05 07:15:27;;;;;;;;;;;10.80;99.90;;;;;;5008338;28;20279;-73
2022/04/05 07:17:53;;;;;;;;;;;10.80;99.90;;;;;;5014571;28;19956;-72
2022/04/05 07:20:20;;;;;;;;;;;10.80;99.90;;;;;;5008777;28;19926;-72
2022/04/05 07:22:49;;;;;;;;;;;11.90;99.90;;;;;;5026351;28;20417;-72
2022/04/05 07:25:16;;;;;;;;;;;10.90;99.90;;;;;;5010148;28;19932;-73
2022/04/05 07:27:44;;;;;;;;;;;12.70;99.90;;;;;;5008369;28;19992;-73
2022/04/05 07:30:11;;;;;;;;;;;10.90;99.90;;;;;;5014775;28;19929;-73
2022/04/05 07:32:38;;;;;;;;;;;10.90;99.90;;;;;;5012323;28;20299;-73
2022/04/05 07:35:05;;;;;;;;;;;10.90;99.90;;;;;;5007674;28;19934;-70
2022/04/05 07:37:32;;;;;;;;;;;10.90;99.90;;;;;;5009413;28;19933;-70
2022/04/05 07:40:00;;;;;;;;;;;10.90;99.90;;;;;;5008876;28;19991;-70
2022/04/05 07:42:27;;;;;;;;;;;10.90;99.90;;;;;;5010113;28;19988;-71
2022/04/05 07:44:54;;;;;;;;;;;11.00;99.90;;;;;;5009279;28;20398;-70
2022/04/05 07:47:20;;;;;;;;;;;11.00;99.90;;;;;;5007698;28;19937;-70
2022/04/05 07:49:47;;;;;;;;;;;11.00;99.90;;;;;;5018041;28;20340;-70
2022/04/05 07:52:14;;;;;;;;;;;11.10;99.90;;;;;;5010868;28;20387;-70
2022/04/05 07:54:41;;;;;;;;;;;11.10;99.90;;;;;;5006568;28;19934;-70
2022/04/05 07:57:13;;;;;;;;;;;12.90;99.90;;;;;;5010305;28;19936;-70
2022/04/05 07:59:40;;;;;;;;;;;11.20;99.90;;;;;;5010979;28;19996;-69
2022/04/05 08:02:06;;;;;;;;;;;11.70;99.90;;;;;;5556795;22;20047;-69
2022/04/05 08:04:33;;;;;;;;;;;11.30;99.90;;;;;;5037523;28;20350;-69
2022/04/05 08:07:01;;;;;;;;;;;11.40;99.90;;;;;;5041943;28;19940;-70
2022/04/05 08:09:27;;;;;;;;;;;11.40;99.90;;;;;;5056406;28;20027;-69
2022/04/05 08:11:54;;;;;;;;;;;11.50;99.90;;;;;;5047396;28;19983;-71
2022/04/05 08:14:27;;;;;;;;;;;11.60;99.90;;;;;;5035845;28;20629;-71
2022/04/05 08:16:55;;;;;;;;;;;11.80;99.90;;;;;;5033452;22;19929;-68
2022/04/05 08:19:21;;;;;;;;;;;12.00;99.90;;;;;;5008032;28;20488;-67
2022/04/05 08:21:48;;;;;;;;;;;12.20;99.90;;;;;;5008273;28;19929;-68
2022/04/05 08:24:15;;;;;;;;;;;12.30;99.90;;;;;;4999966;28;19933;-69
2022/04/05 08:26:42;;;;;;;;;;;12.30;99.90;;;;;;4984291;28;19929;-68
2022/04/05 08:29:08;;;;;;;;;;;12.40;99.90;;;;;;4992333;28;19937;-68
2022/04/05 08:31:36;;;;;;;;;;;12.60;99.90;;;;;;4990299;28;19972;-68
2022/04/05 08:34:03;;;;;;;;;;;12.80;99.90;;;;;;4994120;28;20303;-68
2022/04/05 08:36:30;;;;;;;;;;;12.90;99.90;;;;;;4990295;28;19929;-68
2022/04/05 08:38:56;;;;;;;;;;;12.80;99.90;;;;;;4989253;28;20008;-68
2022/04/05 08:41:24;;;;;;;;;;;12.80;99.90;;;;;;4987891;28;19926;-68
2022/04/05 08:43:51;;;;;;;;;;;12.70;99.90;;;;;;4991164;28;19976;-67
2022/04/05 08:46:18;;;;;;;;;;;12.60;99.90;;;;;;4971855;28;19926;-68
2022/04/05 08:48:48;;;;;;;;;;;12.60;99.90;;;;;;4990675;28;19968;-67
2022/04/05 08:51:14;;;;;;;;;;;12.60;99.90;;;;;;4993497;28;19984;-67
2022/04/05 08:53:42;;;;;;;;;;;12.70;99.90;;;;;;4988446;28;19934;-71
2022/04/05 08:56:08;;;;;;;;;;;13.00;99.90;;;;;;4990398;28;20116;-69
2022/04/05 08:58:35;;;;;;;;;;;13.10;99.90;;;;;;4988858;28;19961;-70
2022/04/05 09:01:02;;;;;;;;;;;13.30;99.90;;;;;;4987930;28;20418;-70
2022/04/05 09:03:32;;;;;;;;;;;13.30;99.90;;;;;;4985900;28;19941;-70
2022/04/05 09:06:20;;;;;;;;;;;13.20;99.90;;;;;;4982467;28;20391;-72
2022/04/05 09:08:48;;;;;;;;;;;13.20;99.90;;;;;;4996040;28;19948;-72
2022/04/05 09:11:20;;;;;;;;;;;13.10;99.90;;;;;;4992206;28;20355;-71
2022/04/05 09:13:56;;;;;;;;;;;13.10;99.90;;;;;;4994563;28;19956;-69
2022/04/05 09:16:28;;;;;;;;;;;13.00;99.90;;;;;;4990793;28;19933;-72
2022/04/05 09:18:55;;;;;;;;;;;12.90;99.90;;;;;;4984482;28;20283;-72
2022/04/05 09:21:23;;;;;;;;;;;11.70;99.90;;;;;;4990407;28;20561;-73
2022/04/05 09:23:52;;;;;;;;;;;12.70;99.90;;;;;;4992586;28;19930;-70
2022/04/05 09:26:19;;;;;;;;;;;12.60;99.90;;;;;;4992603;28;19925;-70
2022/04/05 09:28:47;;;;;;;;;;;12.50;99.90;;;;;;4992869;28;19929;-70
2022/04/05 09:31:14;;;;;;;;;;;12.40;99.90;;;;;;4991490;28;19937;-70
2022/04/05 09:34:01;;;;;;;;;;;12.30;99.90;;;;;;4995956;28;19968;-71
2022/04/05 09:36:34;;;;;;;;;;;12.10;99.90;;;;;;4984944;28;19952;-71
2022/04/05 09:39:10;;;;;;;;;;;12.10;99.90;;;;;;4967158;28;19930;-68
2022/04/05 09:41:36;;;;;;;;;;;12.10;99.90;;;;;;4993709;28;19933;-70
2022/04/05 09:44:03;;;;;;;;;;;12.20;99.90;;;;;;4992505;28;19933;-69
2022/04/05 09:46:30;;;;;;;;;;;12.30;99.90;;;;;;5486607;23;19930;-68
2022/04/05 09:49:08;;;;;;;;;;;12.30;99.90;;;;;;4987862;28;19985;-68
2022/04/05 09:51:37;;;;;;;;;;;12.40;99.90;;;;;;4985640;28;19930;-69
2022/04/05 09:54:04;;;;;;;;;;;12.60;99.90;;;;;;4994695;28;20383;-68
2022/04/05 09:56:31;;;;;;;;;;;12.70;99.90;;;;;;5003358;28;20007;-68
2022/04/05 09:59:02;;;;;;;;;;;12.80;99.90;;;;;;4996545;28;20399;-68
2022/04/05 10:01:29;;;;;;;;;;;12.90;99.90;;;;;;4983528;28;19950;-71
2022/04/05 10:03:57;;;;;;;;;;;12.90;99.90;;;;;;4995393;28;20006;-71
2022/04/05 10:06:24;;;;;;;;;;;12.80;99.90;;;;;;5003950;28;20024;-70
2022/04/05 10:08:53;;;;;;;;;;;12.90;99.90;;;;;;4997996;28;19930;-71
2022/04/05 10:11:20;;;;;;;;;;;13.10;99.90;;;;;;4991287;28;19941;-70
2022/04/05 10:13:46;;;;;;;;;;;13.30;99.90;;;;;;4984740;28;19933;-70
2022/04/05 10:16:14;;;;;;;;;;;13.90;99.90;;;;;;4987852;28;19930;-70
2022/04/05 10:18:41;;;;;;;;;;;14.20;99.90;;;;;;4990151;28;19965;-70
2022/04/05 10:21:12;;;;;;;;;;;14.60;99.90;;;;;;4991225;28;19935;-68
2022/04/05 10:23:41;;;;;;;;;;;14.90;99.90;;;;;;5000140;28;20343;-68
2022/04/05 10:26:10;;;;;;;;;;;15.10;99.90;;;;;;5000926;28;19933;-68
2022/04/05 10:28:38;;;;;;;;;;;16.10;99.90;;;;;;5006479;28;19930;-68
2022/04/05 10:31:11;;;;;;;;;;;14.90;99.90;;;;;;5001680;28;19926;-68
2022/04/05 10:33:42;;;;;;;;;;;14.70;99.90;;;;;;4995802;28;20367;-68
2022/04/05 10:36:09;;;;;;;;;;;14.60;99.90;;;;;;4991788;28;19988;-69
2022/04/05 10:38:36;;;;;;;;;;;14.30;99.90;;;;;;4994351;28;19968;-68
2022/04/05 10:41:14;;;;;;;;;;;14.10;99.90;;;;;;5001712;28;20501;-68
2022/04/05 10:43:41;;;;;;;;;;;13.80;99.90;;;;;;4997724;28;19940;-70
2022/04/05 10:46:08;;;;;;;;;;;13.60;99.90;;;;;;4998306;28;19984;-70
2022/04/05 10:48:35;;;;;;;;;;;13.70;99.90;;;;;;4987975;28;20353;-68
2022/04/05 10:51:11;;;;;;;;;;;14.00;99.90;;;;;;4992078;28;20354;-68
2022/04/05 10:53:39;;;;;;;;;;;14.50;99.90;;;;;;4999217;28;19933;-68
2022/04/05 10:56:14;;;;;;;;;;;14.90;99.90;;;;;;4998133;28;20287;-68
2022/04/05 10:58:42;;;;;;;;;;;15.40;99.90;;;;;;4979192;28;19949;-69
2022/04/05 11:01:15;;;;;;;;;;;15.60;99.90;;;;;;4995221;28;20299;-68
2022/04/05 11:03:44;;;;;;;;;;;15.70;99.90;;;;;;4993120;28;20302;-68
2022/04/05 11:06:11;;;;;;;;;;;15.90;99.90;;;;;;4971913;28;19925;-67
2022/04/05 11:08:38;;;;;;;;;;;16.00;99.90;;;;;;4998038;28;19948;-69
2022/04/05 11:11:08;;;;;;;;;;;16.00;99.90;;;;;;4989305;28;19925;-68
2022/04/05 11:13:46;;;;;;;;;;;15.90;99.90;;;;;;4989933;28;19937;-69
2022/04/05 11:16:14;;;;;;;;;;;15.90;99.90;;;;;;4990675;28;20326;-68
2022/04/05 11:18:41;;;;;;;;;;;15.80;99.90;;;;;;4997935;28;19936;-68
2022/04/05 11:21:08;;;;;;;;;;;15.60;99.90;;;;;;4998707;28;19978;-69
2022/04/05 11:23:49;;;;;;;;;;;15.50;99.90;;;;;;4989722;28;19937;-69
2022/04/05 11:26:23;;;;;;;;;;;15.40;99.90;;;;;;5001520;28;20040;-69
2022/04/05 11:28:51;;;;;;;;;;;15.40;99.90;;;;;;4995683;28;19930;-68
2022/04/05 11:31:27;;;;;;;;;;;15.30;99.90;;;;;;5001762;28;20390;-68
2022/04/05 11:33:53;;;;;;;;;;;15.10;99.90;;;;;;4991153;28;20002;-69
2022/04/05 11:36:23;;;;;;;;;;;14.90;99.90;;;;;;4994335;28;19929;-69
2022/04/05 11:38:53;;;;;;;;;;;14.60;99.90;;;;;;5002367;28;20288;-68
2022/04/05 11:41:21;;;;;;;;;;;14.30;99.90;;;;;;4999479;28;20044;-68
2022/04/05 11:43:50;;;;;;;;;;;14.10;99.90;;;;;;4999567;28;19934;-68
2022/04/05 11:46:19;;;;;;;;;;;13.70;99.90;;;;;;5519357;23;19933;-69
2022/04/05 11:48:47;;;;;;;;;;;13.80;99.90;;;;;;5067543;28;19935;-70
2022/04/05 11:51:14;;;;;;;;;;;14.00;99.90;;;;;;5047858;28;19928;-67
2022/04/05 11:53:41;;;;;;;;;;;14.20;99.90;;;;;;5051287;28;19979;-71
2022/04/05 11:56:13;;;;;;;;;;;14.50;99.90;;;;;;5019648;28;20003;-66
2022/04/05 11:58:41;;;;;;;;;;;14.60;99.90;;;;;;5027065;28;19995;-67
2022/04/05 12:01:08;;;;;;;;;;;14.70;99.90;;;;;;5022855;28;19925;-71
2022/04/05 12:03:47;;;;;;;;;;;14.60;99.90;;;;;;5026595;28;19929;-69
2022/04/05 12:06:14;;;;;;;;;;;14.50;99.90;;;;;;5030171;28;19994;-70
2022/04/05 12:08:41;;;;;;;;;;;14.50;99.90;;;;;;5025354;28;19936;-70
2022/04/05 12:11:08;;;;;;;;;;;14.60;99.90;;;;;;5032198;28;19925;-70
2022/04/05 12:13:35;;;;;;;;;;;14.60;99.90;;;;;;5032359;28;19928;-69
2022/04/05 12:16:03;;;;;;;;;;;14.60;99.90;;;;;;5034834;28;19945;-72
2022/04/05 12:18:30;;;;;;;;;;;14.60;99.90;;;;;;5023946;28;19936;-70
2022/04/05 12:20:59;;;;;;;;;;;14.70;99.90;;;;;;5027199;28;20337;-70
2022/04/05 12:23:29;;;;;;;;;;;14.80;99.90;;;;;;5020842;28;20425;-70
2022/04/05 12:26:02;;;;;;;;;;;15.00;99.90;;;;;;5022416;28;19929;-69
2022/04/05 12:28:29;;;;;;;;;;;15.10;99.90;;;;;;5020386;28;19933;-69
2022/04/05 12:31:03;;;;;;;;;;;15.10;99.90;;;;;;5016144;28;19937;-70
2022/04/05 12:33:29;;;;;;;;;;;15.10;99.90;;;;;;5018516;28;19929;-70
2022/04/05 12:35:56;;;;;;;;;;;15.00;99.90;;;;;;5028816;28;19932;-70
2022/04/05 12:38:24;;;;;;;;;;;15.70;99.90;;;;;;5018831;28;19936;-70
2022/04/05 12:40:51;;;;;;;;;;;14.90;99.90;;;;;;5021405;28;19929;-70
2022/04/05 12:43:19;;;;;;;;;;;14.80;99.90;;;;;;5019791;28;19929;-70
2022/04/05 12:45:46;;;;;;;;;;;14.70;99.90;;;;;;5020944;28;19925;-70
2022/04/05 12:48:13;;;;;;;;;;;14.60;99.90;;;;;;5024146;28;20110;-70
2022/04/05 12:50:41;;;;;;;;;;;14.50;99.90;;;;;;5024115;28;19925;-70
2022/04/05 12:53:08;;;;;;;;;;;17.20;99.90;;;;;;5019420;28;19961;-70
2022/04/05 12:55:36;;;;;;;;;;;14.30;99.90;;;;;;5032560;28;20036;-69
2022/04/05 12:58:03;;;;;;;;;;;15.70;99.90;;;;;;5034017;28;19937;-70
2022/04/05 13:00:32;;;;;;;;;;;14.10;99.90;;;;;;5026804;28;19929;-70
2022/04/05 13:03:00;;;;;;;;;;;13.90;99.90;;;;;;5019206;28;20395;-71
2022/04/05 13:08:12;;;;;;;;;;;13.60;99.90;;;;;;5009987;28;19925;-71
2022/04/05 13:10:41;;;;;;;;;;;13.60;99.90;;;;;;5027489;28;19929;-71
2022/04/05 13:13:18;;;;;;;;;;;15.80;99.90;;;;;;5025026;28;19933;-69
2022/04/05 13:15:46;;;;;;;;;;;13.70;99.90;;;;;;5023033;28;19952;-68
2022/04/05 13:18:14;;;;;;;;;;;13.80;99.90;;;;;;5024476;28;20359;-67
2022/04/05 13:20:41;;;;;;;;;;;15.20;99.90;;;;;;5008861;28;20038;-68
2022/04/05 13:23:08;;;;;;;;;;;14.10;99.90;;;;;;5029642;28;19929;-69
2022/04/05 13:25:36;;;;;;;;;;;15.00;99.90;;;;;;5023289;28;19936;-67
2022/04/05 13:28:05;;;;;;;;;;;17.40;99.90;;;;;;5027541;28;20413;-68
2022/04/05 13:30:41;;;;;;;;;;;15.60;99.90;;;;;;5018756;28;19929;-68
2022/04/05 13:33:08;;;;;;;;;;;15.80;99.90;;;;;;5014716;28;19932;-68
2022/04/05 13:35:35;;;;;;;;;;;15.70;99.90;;;;;;5025681;28;20012;-67
2022/04/05 13:38:02;;;;;;;;;;;15.50;99.90;;;;;;5020484;28;20473;-67
2022/04/05 13:40:28;;;;;;;;;;;15.10;99.90;;;;;;5021844;28;19933;-67
2022/04/05 13:42:55;;;;;;;;;;;14.70;99.90;;;;;;5025942;28;19936;-70
2022/04/05 13:45:23;;;;;;;;;;;14.50;99.90;;;;;;5020645;28;19936;-71
2022/04/05 13:47:50;;;;;;;;;;;14.40;99.90;;;;;;5030352;28;19928;-70
2022/04/05 13:50:17;;;;;;;;;;;14.40;99.90;;;;;;5025971;28;19929;-71
2022/04/05 13:52:44;;;;;;;;;;;14.60;99.90;;;;;;5009765;28;19936;-71
2022/04/05 13:55:11;;;;;;;;;;;15.00;99.90;;;;;;5033880;28;19928;-71
2022/04/05 13:57:38;;;;;;;;;;;15.10;99.90;;;;;;5028110;28;19925;-71
2022/04/05 14:00:06;;;;;;;;;;;15.10;99.90;;;;;;5031992;28;19929;-71
2022/04/05 14:02:38;;;;;;;;;;;15.10;99.90;;;;;;5023924;28;20036;-70
2022/04/05 14:05:06;;;;;;;;;;;15.20;99.90;;;;;;5024182;28;19929;-69
2022/04/05 14:07:32;;;;;;;;;;;14.50;99.90;;;;;;5020182;28;20405;-68
2022/04/05 14:09:59;;;;;;;;;;;15.80;99.90;;;;;;5012398;28;19933;-68
2022/04/05 14:12:26;;;;;;;;;;;15.50;99.90;;;;;;5032467;28;20185;-69
2022/04/05 14:14:52;;;;;;;;;;;15.80;99.90;;;;;;5025261;28;19925;-68
2022/04/05 14:17:19;;;;;;;;;;;17.10;99.90;;;;;;5007456;28;20267;-68
2022/04/05 14:19:48;;;;;;;;;;;15.70;99.90;;;;;;5023483;28;19931;-68
2022/04/05 14:22:14;;;;;;;;;;;15.60;99.90;;;;;;5030039;28;19929;-68
2022/04/05 14:24:41;;;;;;;;;;;15.30;99.90;;;;;;5025842;28;19933;-69
2022/04/05 14:27:09;;;;;;;;;;;15.40;99.90;;;;;;5025519;28;19933;-68
2022/04/05 14:29:36;;;;;;;;;;;14.90;99.90;;;;;;5021917;28;19925;-71